createdAt,value
2022-08-31T00:01:50.762Z,33.07
2022-08-31T00:04:17.692Z,34.97
2022-08-31T00:06:44.378Z,34.33
2022-08-31T00:09:10.982Z,36.92
2022-08-31T00:11:38.718Z,37.97
2022-08-31T00:14:12.484Z,38.63
2022-08-31T00:16:43.497Z,41.08
2022-08-31T00:19:10.306Z,39.03
2022-08-31T00:21:39.067Z,34.43
2022-08-31T00:24:06.298Z,39.83
2022-08-31T00:26:33.149Z,36.80
2022-08-31T00:28:59.935Z,34.20
2022-08-31T00:31:26.663Z,36.65
2022-08-31T00:33:53.559Z,32.83
2022-08-31T00:36:23.811Z,34.50
2022-08-31T00:38:51.868Z,31.98
2022-08-31T00:41:22.521Z,30.70
2022-08-31T00:44:01.009Z,34.03
2022-08-31T00:46:34.102Z,38.23
2022-08-31T00:49:18.590Z,32.67
2022-08-31T00:51:58.885Z,32.40
2022-08-31T00:54:30.733Z,34.10
2022-08-31T00:56:57.838Z,40.00
2022-08-31T00:59:25.496Z,37.67
2022-08-31T01:01:52.263Z,42.88
2022-08-31T01:04:19.096Z,40.92
2022-08-31T01:06:47.380Z,38.40
2022-08-31T01:09:14.829Z,44.23
2022-08-31T01:11:42.360Z,48.67
2022-08-31T01:14:10.885Z,47.40
2022-08-31T01:16:51.864Z,54.40
2022-08-31T01:19:27.576Z,52.85
2022-08-31T01:22:15.296Z,38.60
2022-08-31T01:24:45.137Z,49.58
2022-08-31T01:27:13.765Z,59.10
2022-08-31T01:29:40.979Z,50.85
2022-08-31T01:32:08.098Z,51.87
2022-08-31T01:34:35.355Z,47.60
2022-08-31T01:37:02.503Z,52.80
2022-08-31T01:39:29.281Z,53.13
2022-08-31T01:41:56.341Z,56.88
2022-08-31T01:44:25.247Z,62.97
2022-08-31T01:46:52.309Z,54.28
2022-08-31T01:49:21.393Z,62.85
2022-08-31T01:51:51.837Z,62.65
2022-08-31T01:54:19.091Z,61.75
2022-08-31T01:56:47.586Z,57.22
2022-08-31T01:59:22.249Z,57.93
2022-08-31T02:02:09.263Z,55.38
2022-08-31T02:04:36.980Z,60.72
2022-08-31T02:07:03.767Z,64.77
2022-08-31T02:09:33.971Z,50.25
2022-08-31T02:12:00.678Z,58.72
2022-08-31T02:14:27.388Z,58.40
2022-08-31T02:16:54.157Z,41.30
2022-08-31T02:19:20.875Z,52.20
2022-08-31T02:21:47.564Z,52.00
2022-08-31T02:24:14.322Z,50.45
2022-08-31T02:26:41.243Z,50.15
2022-08-31T02:29:08.225Z,41.85
2022-08-31T02:31:35.415Z,58.13
2022-08-31T02:34:03.082Z,63.83
2022-08-31T02:36:31.534Z,44.90
2022-08-31T02:39:02.024Z,47.40
2022-08-31T02:41:29.015Z,59.67
2022-08-31T02:43:55.669Z,52.70
2022-08-31T02:46:22.436Z,51.92
2022-08-31T02:49:18.968Z,62.57
2022-08-31T02:51:46.236Z,65.60
2022-08-31T02:54:13.594Z,69.57
2022-08-31T02:56:40.911Z,80.75
2022-08-31T02:59:08.440Z,74.15
2022-08-31T03:01:37.099Z,69.60
2022-08-31T03:04:05.242Z,81.85
2022-08-31T03:06:32.594Z,76.57
2022-08-31T03:09:01.141Z,70.53
2022-08-31T03:11:28.827Z,70.97
2022-08-31T03:13:58.622Z,81.87
2022-08-31T03:16:25.897Z,72.50
2022-08-31T03:18:52.720Z,65.60
2022-08-31T03:21:19.517Z,70.57
2022-08-31T03:23:46.368Z,71.53
2022-08-31T03:26:16.278Z,76.78
2022-08-31T03:28:42.987Z,81.28
2022-08-31T03:31:31.625Z,61.55
2022-08-31T03:33:59.186Z,56.22
2022-08-31T03:36:26.100Z,59.35
2022-08-31T03:38:52.748Z,76.32
2022-08-31T03:41:22.734Z,62.20
2022-08-31T03:43:49.495Z,75.60
2022-08-31T03:46:16.980Z,62.15
2022-08-31T03:48:46.888Z,69.45
2022-08-31T03:51:15.594Z,71.93
2022-08-31T03:53:44.567Z,77.00
2022-08-31T03:56:16.914Z,76.80
2022-08-31T03:58:43.661Z,88.25
2022-08-31T04:01:15.096Z,103.97
2022-08-31T04:04:12.772Z,82.30
2022-08-31T04:06:58.354Z,84.00
2022-08-31T04:09:43.582Z,101.03
2022-08-31T04:12:40.042Z,92.60
2022-08-31T04:15:29.784Z,102.18
2022-08-31T04:18:28.636Z,115.20
2022-08-31T04:20:55.337Z,116.72
2022-08-31T04:23:24.306Z,125.63
2022-08-31T04:25:52.652Z,158.73
2022-08-31T04:28:19.456Z,168.45
2022-08-31T04:30:46.744Z,158.77
2022-08-31T04:33:16.415Z,171.40
2022-08-31T04:35:44.264Z,195.25
2022-08-31T04:38:12.104Z,194.98
2022-08-31T04:40:43.071Z,212.03
2022-08-31T04:43:10.612Z,218.55
2022-08-31T04:45:42.044Z,223.50
2022-08-31T04:48:11.359Z,228.27
2022-08-31T04:50:42.511Z,223.85
2022-08-31T04:53:10.031Z,235.02
2022-08-31T04:55:41.630Z,219.83
2022-08-31T04:58:11.802Z,226.45
2022-08-31T05:00:38.488Z,238.77
2022-08-31T05:03:41.184Z,221.20
2022-08-31T05:06:14.190Z,202.43
2022-08-31T05:08:44.779Z,218.47
2022-08-31T05:11:19.839Z,230.40
2022-08-31T05:13:50.521Z,214.57
2022-08-31T05:16:17.853Z,209.80
2022-08-31T05:18:46.318Z,194.32
2022-08-31T05:21:21.033Z,176.75
2022-08-31T05:23:48.799Z,163.32
2022-08-31T05:26:23.512Z,159.63
2022-08-31T05:28:55.265Z,162.80
2022-08-31T05:31:26.730Z,158.95
2022-08-31T05:33:56.086Z,123.22
2022-08-31T05:36:33.896Z,115.53
2022-08-31T05:39:03.944Z,100.25
2022-08-31T05:41:31.553Z,88.68
2022-08-31T05:43:58.630Z,78.45
2022-08-31T05:46:25.453Z,69.88
2022-08-31T05:48:52.117Z,61.40
2022-08-31T05:51:19.358Z,60.33
2022-08-31T05:53:46.865Z,54.13
2022-08-31T05:56:20.125Z,54.47
2022-08-31T05:58:52.811Z,48.03
2022-08-31T06:01:24.406Z,43.15
2022-08-31T06:04:02.755Z,38.72
2022-08-31T06:06:31.860Z,35.65
2022-08-31T06:08:59.073Z,34.00
2022-08-31T06:11:30.529Z,32.65
2022-08-31T06:13:59.009Z,31.65
2022-08-31T06:16:26.879Z,23.38
2022-08-31T06:18:55.575Z,23.90
2022-08-31T06:21:25.478Z,16.47
2022-08-31T06:23:54.088Z,13.85
2022-08-31T06:26:23.582Z,11.60
2022-08-31T06:28:53.509Z,9.85
2022-08-31T06:31:26.808Z,7.63
2022-08-31T06:33:55.894Z,7.72
2022-08-31T06:36:48.910Z,5.50
2022-08-31T06:39:45.097Z,5.70
2022-08-31T06:42:30.440Z,5.00
2022-08-31T06:45:05.317Z,4.65
2022-08-31T06:47:41.843Z,4.40
2022-08-31T06:50:12.250Z,4.30
2022-08-31T06:52:39.226Z,4.63
2022-08-31T06:55:17.429Z,4.80
2022-08-31T06:58:04.046Z,5.30
2022-08-31T07:01:08.423Z,4.40
2022-08-31T07:04:12.281Z,4.32
2022-08-31T07:06:42.416Z,4.53
2022-08-31T07:09:15.948Z,4.20
2022-08-31T07:11:45.707Z,4.30
2022-08-31T07:14:16.024Z,4.07
2022-08-31T07:16:44.371Z,4.22
2022-08-31T07:19:12.758Z,3.60
2022-08-31T07:21:43.607Z,4.00
2022-08-31T07:24:12.229Z,3.40
2022-08-31T07:27:02.301Z,3.58
2022-08-31T07:29:40.647Z,3.53
2022-08-31T07:32:13.479Z,3.40
2022-08-31T07:34:41.710Z,2.75
2022-08-31T07:37:56.308Z,3.00
2022-08-31T07:40:44.645Z,3.28
2022-08-31T07:43:14.109Z,3.20
2022-08-31T07:45:41.758Z,2.80
2022-08-31T07:48:09.397Z,2.50
2022-08-31T07:51:11.368Z,1.90
2022-08-31T07:54:06.904Z,1.55
2022-08-31T07:56:42.080Z,1.73
2022-08-31T07:59:11.388Z,1.60
2022-08-31T08:01:41.300Z,1.50
2022-08-31T08:04:09.568Z,1.50
2022-08-31T08:06:56.451Z,1.30
2022-08-31T08:09:49.107Z,1.55
2022-08-31T08:12:25.261Z,1.30
2022-08-31T08:15:06.609Z,1.70
2022-08-31T08:18:00.305Z,1.45
2022-08-31T08:20:37.963Z,1.70
2022-08-31T08:23:14.382Z,1.40
2022-08-31T08:26:01.188Z,1.33
2022-08-31T08:28:47.865Z,1.35
2022-08-31T08:31:17.875Z,1.40
2022-08-31T08:33:46.016Z,1.20
2022-08-31T08:36:17.056Z,1.30
2022-08-31T08:38:46.295Z,1.35
2022-08-31T08:41:20.058Z,1.40
2022-08-31T08:43:52.672Z,1.27
2022-08-31T08:46:40.243Z,1.30
2022-08-31T08:49:28.316Z,1.30
2022-08-31T08:52:03.804Z,1.30
2022-08-31T08:54:34.827Z,1.50
2022-08-31T08:57:14.052Z,1.40
2022-08-31T08:59:44.352Z,1.20
2022-08-31T09:02:17.253Z,1.30
2022-08-31T09:05:35.181Z,1.10
2022-08-31T09:09:12.062Z,1.23
2022-08-31T09:12:14.860Z,1.30
2022-08-31T09:15:41.595Z,1.30
2022-08-31T09:18:33.139Z,1.30
2022-08-31T09:21:21.810Z,1.13
2022-08-31T09:24:02.298Z,1.60
2022-08-31T09:27:20.163Z,1.50
2022-08-31T09:30:00.518Z,1.35
2022-08-31T09:32:31.476Z,1.30
2022-08-31T09:35:23.697Z,1.45
2022-08-31T09:38:02.354Z,1.00
2022-08-31T09:40:37.054Z,1.00
2022-08-31T09:43:25.809Z,1.20
2022-08-31T09:46:02.462Z,1.20
2022-08-31T09:48:56.127Z,1.10
2022-08-31T09:51:29.888Z,1.30
2022-08-31T09:54:35.305Z,1.17
2022-08-31T09:57:05.386Z,1.30
2022-08-31T09:59:44.064Z,1.20
2022-08-31T10:02:22.771Z,1.20
2022-08-31T10:04:54.362Z,1.58
2022-08-31T10:07:42.987Z,1.27
2022-08-31T10:10:28.077Z,1.20
2022-08-31T10:13:18.779Z,1.90
2022-08-31T10:16:02.438Z,1.40
2022-08-31T10:18:42.228Z,1.30
2022-08-31T10:21:21.155Z,1.67
2022-08-31T10:24:28.650Z,1.90
2022-08-31T10:27:03.063Z,1.20
2022-08-31T10:29:48.617Z,1.40
2022-08-31T10:32:36.679Z,1.00
2022-08-31T10:35:11.233Z,1.20
2022-08-31T10:37:55.064Z,1.30
2022-08-31T10:40:28.773Z,1.02
2022-08-31T10:43:11.980Z,1.40
2022-08-31T10:45:44.254Z,1.27
2022-08-31T10:48:13.183Z,0.90
2022-08-31T10:51:05.638Z,1.30
2022-08-31T10:53:54.797Z,1.00
2022-08-31T10:56:59.254Z,1.58
2022-08-31T10:59:37.065Z,1.17
2022-08-31T11:02:31.538Z,1.15
2022-08-31T11:05:29.857Z,1.10
2022-08-31T11:08:17.135Z,1.10
2022-08-31T11:11:13.033Z,1.15
2022-08-31T11:14:16.109Z,1.17
2022-08-31T11:17:14.812Z,1.10
2022-08-31T11:20:17.187Z,1.00
2022-08-31T11:23:17.801Z,1.10
2022-08-31T11:26:00.635Z,1.10
2022-08-31T11:29:00.747Z,1.10
2022-08-31T11:31:33.427Z,1.20
2022-08-31T11:34:28.824Z,1.02
2022-08-31T11:37:00.078Z,1.30
2022-08-31T11:39:37.490Z,1.20
2022-08-31T11:42:12.583Z,1.00
2022-08-31T11:44:43.363Z,1.25
2022-08-31T11:47:28.310Z,1.10
2022-08-31T11:50:03.973Z,1.13
2022-08-31T11:52:43.815Z,1.30
2022-08-31T11:55:23.128Z,1.10
2022-08-31T11:58:11.502Z,1.00
2022-08-31T12:00:58.731Z,1.00
2022-08-31T12:03:40.221Z,1.48
2022-08-31T12:06:37.216Z,1.20
2022-08-31T12:09:25.607Z,1.08
2022-08-31T12:12:06.652Z,1.10
2022-08-31T12:14:51.130Z,1.13
2022-08-31T12:17:38.257Z,1.20
2022-08-31T12:20:18.168Z,1.05
2022-08-31T12:23:35.476Z,1.10
2022-08-31T12:26:14.358Z,1.10
2022-08-31T12:29:02.649Z,1.00
2022-08-31T12:31:29.995Z,1.00
2022-08-31T12:34:12.969Z,1.10
2022-08-31T12:36:40.315Z,0.95
2022-08-31T12:39:19.644Z,1.10
2022-08-31T12:42:05.570Z,1.10
2022-08-31T12:44:50.389Z,1.13
2022-08-31T12:47:43.109Z,1.17
2022-08-31T12:50:56.404Z,1.15
2022-08-31T12:53:44.491Z,1.10
2022-08-31T12:56:20.029Z,1.00
2022-08-31T12:59:20.406Z,1.10
2022-08-31T13:01:49.514Z,1.20
2022-08-31T13:04:22.207Z,1.10
2022-08-31T13:06:50.606Z,1.30
2022-08-31T13:09:24.591Z,1.00
2022-08-31T13:11:53.823Z,1.00
2022-08-31T13:14:28.413Z,0.90
2022-08-31T13:17:05.462Z,1.00
2022-08-31T13:19:34.532Z,1.00
2022-08-31T13:22:12.115Z,1.20
2022-08-31T13:24:42.048Z,0.95
2022-08-31T13:27:28.281Z,1.20
2022-08-31T13:30:10.538Z,1.20
2022-08-31T13:32:40.899Z,1.20
2022-08-31T13:35:13.570Z,0.95
2022-08-31T13:37:53.200Z,1.10
2022-08-31T13:40:24.814Z,1.30
2022-08-31T13:42:56.858Z,1.00
2022-08-31T13:45:37.920Z,1.00
2022-08-31T13:48:26.435Z,0.90
2022-08-31T13:51:00.552Z,1.00
2022-08-31T13:53:46.663Z,0.95
2022-08-31T13:56:40.806Z,1.20
2022-08-31T13:59:26.460Z,1.00
2022-08-31T14:02:30.935Z,0.80
2022-08-31T14:05:05.494Z,1.10
2022-08-31T14:07:45.834Z,1.05
2022-08-31T14:10:24.173Z,1.03
2022-08-31T14:12:59.203Z,1.05
2022-08-31T14:15:52.499Z,1.00
2022-08-31T14:18:31.754Z,0.97
2022-08-31T14:21:23.740Z,1.10
2022-08-31T14:24:01.200Z,1.02
2022-08-31T14:26:34.413Z,0.80
2022-08-31T14:29:09.917Z,0.90
2022-08-31T14:31:42.886Z,0.70
2022-08-31T14:34:30.317Z,0.80
2022-08-31T14:36:59.382Z,1.00
2022-08-31T14:39:47.707Z,0.83
2022-08-31T14:42:25.547Z,0.82
2022-08-31T14:44:57.865Z,0.93
2022-08-31T14:47:27.724Z,0.82
2022-08-31T14:49:58.730Z,0.90
2022-08-31T14:52:28.455Z,0.80
2022-08-31T14:54:59.375Z,0.93
2022-08-31T14:57:26.644Z,0.90
2022-08-31T15:00:02.272Z,0.88
2022-08-31T15:02:34.080Z,1.02
2022-08-31T15:05:06.440Z,0.88
2022-08-31T15:07:35.430Z,0.90
2022-08-31T15:10:02.594Z,0.95
2022-08-31T15:12:29.204Z,0.83
2022-08-31T15:14:59.889Z,0.80
2022-08-31T15:17:33.884Z,0.90
2022-08-31T15:20:03.584Z,0.85
2022-08-31T15:22:31.310Z,0.90
2022-08-31T15:24:58.042Z,1.00
2022-08-31T15:27:29.121Z,0.75
2022-08-31T15:30:02.496Z,0.90
2022-08-31T15:32:29.139Z,0.82
2022-08-31T15:35:01.678Z,0.90
2022-08-31T15:37:31.805Z,0.90
2022-08-31T15:40:03.521Z,0.93
2022-08-31T15:42:36.658Z,1.02
2022-08-31T15:45:03.937Z,0.80
2022-08-31T15:47:52.478Z,0.70
2022-08-31T15:50:23.287Z,0.70
2022-08-31T15:52:54.862Z,0.90
2022-08-31T15:55:26.541Z,1.03
2022-08-31T15:57:55.308Z,0.80
2022-08-31T16:00:23.808Z,0.80
2022-08-31T16:02:57.438Z,0.80
2022-08-31T16:05:28.590Z,0.93
2022-08-31T16:07:57.214Z,0.90
2022-08-31T16:10:24.487Z,0.90
2022-08-31T16:12:53.963Z,0.90
2022-08-31T16:15:24.936Z,0.90
2022-08-31T16:17:51.993Z,0.75
2022-08-31T16:20:21.056Z,0.90
2022-08-31T16:22:48.309Z,0.80
2022-08-31T16:25:16.273Z,0.97
2022-08-31T16:27:46.980Z,0.80
2022-08-31T16:30:15.873Z,0.95
2022-08-31T16:32:42.615Z,1.00
2022-08-31T16:35:17.039Z,0.85
2022-08-31T16:37:43.688Z,1.30
2022-08-31T16:40:12.669Z,0.90
2022-08-31T16:42:39.370Z,1.00
2022-08-31T16:45:06.428Z,1.15
2022-08-31T16:47:35.486Z,0.90
2022-08-31T16:50:08.648Z,1.00
2022-08-31T16:52:35.972Z,0.90
2022-08-31T16:55:02.904Z,1.10
2022-08-31T16:57:34.537Z,1.30
2022-08-31T17:00:03.318Z,1.27
2022-08-31T17:02:30.360Z,0.98
2022-08-31T17:05:00.617Z,1.20
2022-08-31T17:07:33.688Z,1.13
2022-08-31T17:10:06.727Z,1.23
2022-08-31T17:12:33.414Z,1.30
2022-08-31T17:15:01.511Z,1.30
2022-08-31T17:17:31.611Z,1.10
2022-08-31T17:20:01.968Z,0.97
2022-08-31T17:22:33.180Z,1.05
2022-08-31T17:25:02.661Z,1.13
2022-08-31T17:27:29.385Z,1.20
2022-08-31T17:29:56.173Z,1.27
2022-08-31T17:32:26.372Z,1.17
2022-08-31T17:34:54.895Z,2.55
2022-08-31T17:37:26.864Z,1.75
2022-08-31T17:39:56.434Z,1.10
2022-08-31T17:42:26.898Z,1.55
2022-08-31T17:44:54.558Z,1.10
2022-08-31T17:47:23.408Z,0.90
2022-08-31T17:49:50.941Z,0.90
2022-08-31T17:52:20.278Z,0.82
2022-08-31T17:54:48.548Z,1.00
2022-08-31T17:57:17.140Z,0.90
2022-08-31T17:59:46.549Z,0.80
2022-08-31T18:02:17.435Z,1.08
2022-08-31T18:04:44.453Z,1.17
2022-08-31T18:07:11.933Z,3.20
2022-08-31T18:09:44.121Z,1.50
2022-08-31T18:12:11.261Z,1.40
2022-08-31T18:14:41.555Z,1.40
2022-08-31T18:17:16.088Z,1.33
2022-08-31T18:19:44.603Z,1.60
2022-08-31T18:22:14.189Z,1.88
2022-08-31T18:24:41.667Z,1.45
2022-08-31T18:27:10.746Z,1.50
2022-08-31T18:29:38.479Z,1.70
2022-08-31T18:32:07.303Z,1.67
2022-08-31T18:34:39.058Z,2.40
2022-08-31T18:37:07.745Z,2.90
2022-08-31T18:39:52.918Z,16.10
2022-08-31T18:42:41.813Z,37.70
2022-08-31T18:45:15.930Z,1.87
2022-08-31T18:47:43.430Z,2.13
2022-08-31T18:50:10.461Z,2.10
2022-08-31T18:52:40.416Z,1.35
2022-08-31T18:55:15.506Z,1.60
2022-08-31T18:57:48.811Z,1.35
2022-08-31T19:00:18.990Z,1.40
2022-08-31T19:02:49.847Z,1.40
2022-08-31T19:05:16.692Z,1.57
2022-08-31T19:07:46.445Z,1.33
2022-08-31T19:10:14.221Z,1.40
2022-08-31T19:12:42.594Z,1.58
2022-08-31T19:15:13.264Z,1.50
2022-08-31T19:17:41.728Z,1.40
2022-08-31T19:20:12.899Z,1.60
2022-08-31T19:22:42.782Z,1.88
2022-08-31T19:25:12.074Z,1.70
2022-08-31T19:27:39.248Z,1.80
2022-08-31T19:30:10.336Z,1.50
2022-08-31T19:32:39.587Z,1.73
2022-08-31T19:35:08.423Z,1.70
2022-08-31T19:37:39.910Z,1.83
2022-08-31T19:40:07.259Z,2.17
2022-08-31T19:42:59.554Z,2.00
2022-08-31T19:45:24.209Z,2.10
2022-08-31T19:48:01.647Z,2.50
2022-08-31T19:50:28.310Z,2.78
2022-08-31T19:52:54.994Z,3.60
2022-08-31T19:55:21.657Z,5.30
2022-08-31T19:57:48.318Z,10.48
2022-08-31T20:00:16.072Z,14.70
2022-08-31T20:02:44.453Z,23.58
2022-08-31T20:05:11.996Z,28.90
2022-08-31T20:07:41.422Z,30.75
2022-08-31T20:10:08.930Z,34.88
2022-08-31T20:12:53.556Z,33.53
2022-08-31T20:15:23.318Z,42.30
2022-08-31T20:17:57.092Z,42.95
2022-08-31T20:20:26.871Z,48.35
2022-08-31T20:22:54.021Z,41.63
2022-08-31T20:25:26.193Z,52.53
2022-08-31T20:27:53.854Z,54.20
2022-08-31T20:30:20.573Z,66.80
2022-08-31T20:32:47.193Z,66.60
2022-08-31T20:35:14.136Z,58.23
2022-08-31T20:37:40.764Z,66.18
2022-08-31T20:40:15.862Z,57.75
2022-08-31T20:42:43.362Z,60.80
2022-08-31T20:45:10.161Z,56.58
2022-08-31T20:47:55.288Z,53.97
2022-08-31T20:50:28.206Z,45.80
2022-08-31T20:52:56.770Z,46.10
2022-08-31T20:55:23.626Z,45.47
2022-08-31T20:57:51.243Z,40.78
2022-08-31T21:00:22.759Z,42.70
2022-08-31T21:02:49.971Z,41.35
2022-08-31T21:08:11.593Z,43.95
2022-08-31T21:10:42.272Z,42.85
2022-08-31T21:13:12.610Z,50.38
2022-08-31T21:15:48.648Z,46.72
2022-08-31T21:18:17.485Z,54.03
2022-08-31T21:20:46.132Z,47.85
2022-08-31T21:23:13.342Z,42.70
2022-08-31T21:25:43.937Z,45.70
2022-08-31T21:28:17.756Z,52.55
2022-08-31T21:30:50.074Z,46.13
2022-08-31T21:33:17.515Z,47.03
2022-08-31T21:35:47.872Z,44.85
2022-08-31T21:38:14.492Z,41.50
2022-08-31T21:40:49.090Z,47.93
2022-08-31T21:43:16.036Z,49.50
2022-08-31T21:45:44.980Z,47.73
2022-08-31T21:48:11.619Z,48.10
2022-08-31T21:50:38.550Z,40.50
2022-08-31T21:53:09.579Z,37.50
2022-08-31T21:55:41.474Z,34.67
2022-08-31T21:58:15.313Z,35.15
2022-08-31T22:00:45.234Z,38.17
2022-08-31T22:03:12.844Z,32.50
2022-08-31T22:05:46.850Z,42.23
2022-08-31T22:08:17.902Z,44.00
2022-08-31T22:10:47.909Z,36.92
2022-08-31T22:13:30.948Z,30.42
2022-08-31T22:16:04.280Z,30.60
2022-08-31T22:21:35.993Z,29.40
2022-08-31T22:24:08.964Z,33.53
2022-08-31T22:26:45.030Z,37.58
2022-08-31T22:29:17.202Z,39.17
2022-08-31T22:31:44.122Z,38.10
2022-08-31T22:34:13.796Z,37.85
2022-08-31T22:36:43.063Z,38.28
2022-08-31T22:39:12.546Z,37.80
2022-08-31T22:41:43.656Z,45.33
2022-08-31T22:44:16.244Z,45.13
2022-08-31T22:46:46.572Z,44.35
2022-08-31T22:49:14.252Z,46.22
2022-08-31T22:51:44.245Z,41.72
2022-08-31T22:54:11.426Z,51.35
2022-08-31T22:56:39.362Z,58.92
2022-08-31T22:59:13.585Z,52.17
2022-08-31T23:01:47.928Z,59.00
2022-08-31T23:04:18.883Z,53.83
2022-08-31T23:06:46.884Z,61.33
2022-08-31T23:09:13.579Z,66.40
2022-08-31T23:11:40.301Z,65.30
2022-08-31T23:14:08.985Z,54.78
2022-08-31T23:16:46.581Z,48.28
2022-08-31T23:19:18.263Z,53.83
2022-08-31T23:21:52.515Z,62.78
2022-08-31T23:24:33.610Z,62.92
2022-08-31T23:27:04.162Z,68.88
2022-08-31T23:29:34.775Z,48.83
2022-08-31T23:32:01.575Z,58.25
2022-08-31T23:34:28.336Z,66.75
2022-08-31T23:36:55.621Z,59.43
2022-08-31T23:39:23.921Z,62.50
2022-08-31T23:41:53.175Z,61.65
2022-08-31T23:44:20.941Z,57.50
2022-08-31T23:46:48.600Z,56.80
2022-08-31T23:49:17.697Z,47.92
2022-08-31T23:51:44.677Z,56.30
2022-08-31T23:54:12.597Z,57.97
2022-08-31T23:56:41.844Z,64.80
2022-08-31T23:59:12.911Z,65.72
